Redoak, Ohio
Current Conditions -  °F | °C
As of 10:55 AM on Saturday 25 Oct 2014 (Local Time) from KFGX Reporting Station
Overcast Overcast  
Wind Chill: 13°   Ceiling: 4300
Heat Index: 13°   Visibility: 10mi
Dew Point:   Wind: 7mph
Humidity: 80%   Direction: 230°SW
Pressure: 30.04"   Gusts: NA
Location:  38.776°N, 83.7985°W
Report Text: KFGX 251455Z AUTO 23006KT 10SM OVC043 13/09 A3004 RMK AO2 6//// T01260092
Loading
Personal Weather Stations






























Interactive Weather Map
Tropical Storm Tracking
New forecast layout! Learn more

10-Day Weather Forecast

Advertisements
Track Severe Weather on mobile